createdAt,value
2022-11-24T00:03:17.026Z,12.60
2022-11-24T00:08:20.846Z,13.30
2022-11-24T00:13:24.464Z,12.60
2022-11-24T00:18:28.184Z,12.70
2022-11-24T00:23:31.802Z,12.70
2022-11-24T00:28:36.554Z,12.60
2022-11-24T00:38:43.886Z,11.60
2022-11-24T00:43:47.296Z,7.60
2022-11-24T00:48:50.923Z,11.20
2022-11-24T00:53:55.744Z,10.90
2022-11-24T00:58:59.286Z,10.60
2022-11-24T01:04:02.894Z,10.70
2022-11-24T01:09:06.410Z,11.90
2022-11-24T01:14:09.925Z,11.30
2022-11-24T01:19:13.341Z,10.60
2022-11-24T01:24:17.060Z,12.00
2022-11-24T01:29:20.473Z,9.60
2022-11-24T01:34:24.095Z,12.20
2022-11-24T01:39:27.707Z,11.40
2022-11-24T01:44:32.105Z,9.90
2022-11-24T01:54:55.560Z,12.20
2022-11-24T02:00:04.936Z,10.90
2022-11-24T02:05:17.340Z,12.50
2022-11-24T02:10:22.080Z,12.70
2022-11-24T02:15:26.007Z,12.90
2022-11-24T02:20:29.429Z,8.80
2022-11-24T02:25:35.904Z,13.30
2022-11-24T02:30:39.774Z,13.60
2022-11-24T02:35:43.762Z,12.60
2022-11-24T02:40:49.533Z,12.30
2022-11-24T02:45:53.036Z,12.30
2022-11-24T02:50:56.659Z,9.00
2022-11-24T02:56:00.172Z,14.40
2022-11-24T03:01:05.029Z,13.40
2022-11-24T03:06:08.650Z,13.00
2022-11-24T03:11:12.570Z,14.50
2022-11-24T03:16:16.181Z,16.50
2022-11-24T03:21:20.643Z,15.40
2022-11-24T03:26:26.048Z,15.10
2022-11-24T03:31:29.528Z,16.00
2022-11-24T03:36:33.116Z,16.20
2022-11-24T03:41:36.831Z,16.30
2022-11-24T03:46:40.385Z,16.60
2022-11-24T03:51:44.171Z,18.60
2022-11-24T03:56:47.995Z,15.50
2022-11-24T04:01:51.789Z,16.80
2022-11-24T04:06:55.329Z,13.30
2022-11-24T04:12:17.689Z,19.10
2022-11-24T04:17:21.204Z,14.50
2022-11-24T04:22:24.822Z,15.10
2022-11-24T04:27:28.951Z,12.00
2022-11-24T04:32:32.774Z,13.40
2022-11-24T04:37:36.290Z,13.20
2022-11-24T04:42:40.012Z,15.80
2022-11-24T04:47:43.424Z,15.30
2022-11-24T04:52:47.148Z,14.90
2022-11-24T04:57:50.865Z,15.70
2022-11-24T05:02:54.481Z,11.00
2022-11-24T05:08:00.956Z,13.80
2022-11-24T05:13:13.610Z,15.30
2022-11-24T05:18:17.514Z,13.60
2022-11-24T05:23:21.029Z,12.60
2022-11-24T05:28:26.579Z,10.90
2022-11-24T05:33:33.661Z,10.80
2022-11-24T05:38:37.208Z,10.50
2022-11-24T05:43:40.621Z,12.60
2022-11-24T05:48:44.136Z,12.10
2022-11-24T05:53:47.549Z,13.60
2022-11-24T05:58:51.064Z,13.20
2022-11-24T06:03:54.579Z,10.40
2022-11-24T06:08:57.993Z,9.50
2022-11-24T06:14:01.611Z,8.70
2022-11-24T06:19:07.992Z,9.40
2022-11-24T06:24:11.718Z,8.40
2022-11-24T06:29:15.336Z,7.90
2022-11-24T06:34:19.258Z,7.40
2022-11-24T06:39:22.876Z,7.30
2022-11-24T06:44:26.697Z,8.00
2022-11-24T06:49:30.213Z,8.10
2022-11-24T06:54:34.671Z,8.90
2022-11-24T06:59:38.167Z,7.80
2022-11-24T07:04:41.683Z,7.60
2022-11-24T07:09:45.299Z,8.00
2022-11-24T07:14:48.922Z,7.20
2022-11-24T07:19:53.048Z,7.90
2022-11-24T07:24:56.460Z,8.30
2022-11-24T07:29:59.974Z,10.10
2022-11-24T07:35:04.108Z,10.80
2022-11-24T07:40:08.441Z,9.00
2022-11-24T07:45:11.855Z,9.00
2022-11-24T07:50:15.473Z,9.40
2022-11-24T07:55:19.089Z,10.20
2022-11-24T08:00:22.712Z,5.70
2022-11-24T08:05:26.329Z,8.80
2022-11-24T08:10:30.284Z,7.90
2022-11-24T08:15:33.666Z,9.50
2022-11-24T08:20:37.179Z,9.40
2022-11-24T08:25:40.695Z,10.20
2022-11-24T08:30:44.312Z,10.90
2022-11-24T08:35:47.829Z,9.00
2022-11-24T08:40:51.446Z,10.20
2022-11-24T08:45:54.997Z,8.70
2022-11-24T08:50:59.604Z,8.50
2022-11-24T08:56:04.030Z,9.40
2022-11-24T09:01:10.975Z,8.90
2022-11-24T09:06:15.064Z,10.40
2022-11-24T09:11:19.716Z,9.80
2022-11-24T09:16:26.382Z,9.10
2022-11-24T09:21:31.146Z,10.00
2022-11-24T09:26:37.320Z,10.10
2022-11-24T09:31:40.936Z,9.10
2022-11-24T09:36:44.352Z,10.60
2022-11-24T09:42:06.813Z,9.40
2022-11-24T09:47:16.571Z,9.80
2022-11-24T09:52:32.888Z,11.30
2022-11-24T09:57:41.527Z,10.70
2022-11-24T10:02:48.352Z,10.30
2022-11-24T10:08:06.885Z,9.40
2022-11-24T10:13:53.716Z,9.80
2022-11-24T10:19:37.721Z,9.20
2022-11-24T10:25:20.105Z,6.20
2022-11-24T10:30:26.591Z,9.40
2022-11-24T10:35:57.347Z,10.40
2022-11-24T10:41:06.501Z,9.60
2022-11-24T10:46:20.069Z,9.30
2022-11-24T10:51:58.404Z,10.70
2022-11-24T10:57:02.506Z,11.90
2022-11-24T11:02:36.206Z,13.10
2022-11-24T11:07:39.967Z,13.80
2022-11-24T11:12:44.979Z,13.30
2022-11-24T11:17:52.663Z,12.00
2022-11-24T11:22:58.452Z,12.50
2022-11-24T11:28:40.721Z,13.80
2022-11-24T11:34:08.065Z,13.40
2022-11-24T11:39:36.280Z,13.40
2022-11-24T11:44:49.211Z,13.80
2022-11-24T11:49:53.238Z,14.50
2022-11-24T11:55:27.476Z,15.90
2022-11-24T12:00:35.701Z,16.10
2022-11-24T12:06:01.027Z,14.50
2022-11-24T12:11:32.194Z,15.80
2022-11-24T12:16:49.838Z,14.50
2022-11-24T12:22:14.456Z,16.60
2022-11-24T12:27:55.442Z,15.60
2022-11-24T12:33:17.492Z,16.50
2022-11-24T12:38:55.934Z,18.30
2022-11-24T12:44:01.283Z,17.30
2022-11-24T12:49:21.798Z,18.90
2022-11-24T12:54:32.890Z,20.00
2022-11-24T13:00:01.965Z,18.30
2022-11-24T13:05:39.621Z,19.30
2022-11-24T13:10:58.825Z,20.10
2022-11-24T13:21:51.971Z,20.30
2022-11-24T13:27:20.008Z,20.90
2022-11-24T13:32:23.420Z,20.50
2022-11-24T13:37:34.221Z,21.70
2022-11-24T13:43:03.530Z,21.50
2022-11-24T13:48:19.221Z,19.00
2022-11-24T13:59:35.586Z,19.90
2022-11-24T14:04:44.435Z,17.30
2022-11-24T14:09:52.148Z,16.00
2022-11-24T14:15:21.052Z,17.90
2022-11-24T14:20:27.128Z,14.70
2022-11-24T14:25:32.261Z,16.70
2022-11-24T14:30:35.592Z,18.40
2022-11-24T14:35:44.755Z,20.50
2022-11-24T14:40:54.075Z,18.20
2022-11-24T14:46:09.646Z,14.40
2022-11-24T14:51:22.217Z,18.50
2022-11-24T14:56:27.573Z,17.50
2022-11-24T15:01:34.944Z,18.50
2022-11-24T15:06:40.802Z,21.00
2022-11-24T15:11:44.369Z,18.50
2022-11-24T15:16:48.037Z,13.80
2022-11-24T15:21:51.807Z,20.10
2022-11-24T15:27:01.781Z,20.40
2022-11-24T15:32:15.547Z,19.90
2022-11-24T15:37:18.840Z,19.00
2022-11-24T15:42:22.356Z,25.40
2022-11-24T15:47:25.769Z,15.90
2022-11-24T15:52:29.286Z,21.10
2022-11-24T15:57:35.770Z,44.50
2022-11-24T16:02:45.126Z,19.20
2022-11-24T16:07:48.822Z,16.50
2022-11-24T16:12:52.564Z,18.10
2022-11-24T16:17:55.979Z,13.40
2022-11-24T16:22:59.441Z,17.50
2022-11-24T16:28:03.015Z,18.50
2022-11-24T16:33:07.136Z,20.00
2022-11-24T16:38:24.579Z,20.10
2022-11-24T16:43:29.222Z,21.10
2022-11-24T16:48:38.780Z,17.00
2022-11-24T16:53:43.026Z,20.10
2022-11-24T16:58:46.527Z,23.30
2022-11-24T17:03:50.043Z,25.50
2022-11-24T17:08:55.915Z,23.50
2022-11-24T17:13:59.326Z,24.20
2022-11-24T17:19:03.249Z,23.80
2022-11-24T17:24:07.477Z,15.80
2022-11-24T17:29:11.304Z,25.60
2022-11-24T17:34:14.722Z,25.90
2022-11-24T17:39:23.240Z,25.70
2022-11-24T17:44:28.508Z,24.70
2022-11-24T17:49:31.818Z,24.00
2022-11-24T17:54:50.495Z,22.70
2022-11-24T17:59:53.901Z,29.20
2022-11-24T18:04:57.316Z,28.40
2022-11-24T18:10:01.048Z,25.10
2022-11-24T18:15:04.937Z,28.20
2022-11-24T18:20:10.944Z,27.10
2022-11-24T18:25:14.449Z,25.30
2022-11-24T18:30:18.493Z,24.50
2022-11-24T18:35:21.889Z,22.50
2022-11-24T18:40:25.718Z,30.90
2022-11-24T18:45:29.398Z,28.80
2022-11-24T18:50:33.563Z,22.50
2022-11-24T18:55:37.080Z,25.20
2022-11-24T19:00:40.491Z,27.30
2022-11-24T19:05:44.110Z,29.70
2022-11-24T19:10:49.674Z,32.50
2022-11-24T19:15:53.190Z,32.70
2022-11-24T19:20:57.830Z,36.20
2022-11-24T19:31:07.933Z,32.10
2022-11-24T19:36:16.677Z,28.20
2022-11-24T19:41:21.927Z,28.10
2022-11-24T19:46:27.855Z,28.50
2022-11-24T19:51:36.530Z,33.20
2022-11-24T19:56:41.592Z,33.90
2022-11-24T20:01:45.256Z,32.10
2022-11-24T20:06:49.136Z,34.10
2022-11-24T20:11:52.647Z,29.40
2022-11-24T20:16:56.233Z,31.60
2022-11-24T20:22:00.499Z,30.00
2022-11-24T20:27:04.120Z,28.50
2022-11-24T20:32:09.045Z,30.30
2022-11-24T20:37:13.914Z,32.80
2022-11-24T20:42:17.429Z,28.90
2022-11-24T20:47:20.943Z,25.90
2022-11-24T20:52:24.460Z,25.30
2022-11-24T20:57:27.871Z,28.80
2022-11-24T21:02:31.476Z,28.70
2022-11-24T21:07:35.372Z,27.30
2022-11-24T21:12:38.930Z,27.80
2022-11-24T21:17:42.344Z,27.50
2022-11-24T21:22:45.860Z,25.50
2022-11-24T21:27:49.373Z,18.60
2022-11-24T21:32:52.786Z,23.50
2022-11-24T21:37:56.615Z,21.30
2022-11-24T21:43:00.123Z,21.10
2022-11-24T21:48:03.644Z,19.50
2022-11-24T21:53:09.719Z,21.60
2022-11-24T21:58:13.232Z,15.10
2022-11-24T22:03:17.690Z,19.50
2022-11-24T22:08:22.104Z,19.60
2022-11-24T22:13:25.623Z,20.00
2022-11-24T22:18:38.284Z,16.90
2022-11-24T22:23:42.541Z,17.90
2022-11-24T22:28:46.614Z,18.00
2022-11-24T22:33:50.742Z,21.20
2022-11-24T22:38:56.116Z,20.70
2022-11-24T22:43:59.924Z,18.20
2022-11-24T22:49:03.458Z,12.30
2022-11-24T22:54:06.954Z,15.50
2022-11-24T22:59:10.474Z,18.30
2022-11-24T23:04:14.570Z,17.20
2022-11-24T23:09:18.115Z,16.00
2022-11-24T23:14:21.634Z,16.10
2022-11-24T23:19:25.044Z,13.90
2022-11-24T23:24:28.561Z,14.00
2022-11-24T23:29:31.974Z,15.70
2022-11-24T23:34:35.677Z,13.70
2022-11-24T23:39:39.414Z,11.00
2022-11-24T23:44:42.928Z,12.50
2022-11-24T23:49:46.446Z,13.60
2022-11-24T23:54:49.959Z,12.80
2022-11-24T23:59:54.090Z,14.40
